Time;durP1;ratioP1;P1;durP2;ratioP2;P2;SDS_P1;SDS_P2;PMS_P1;PMS_P2;Temp;Humidity;BMP_temperature;BMP_pressure;BME280_temperature;BME280_humidity;BME280_pressure;Samples;Min_cycle;Max_cycle;Signal;HPM_P1;HPM_P2
2023/07/09 00:01:03;;;;;;;;;;;;;;;27.80;43.52;101595.69;5141891;27;19968;-60
2023/07/09 00:03:31;;;;;;;;;;;;;;;27.79;43.66;101596.81;5144226;27;19941;-60
2023/07/09 00:05:59;;;;;;;;;;;;;;;27.77;43.84;101593.56;5145131;27;20348;-59
2023/07/09 00:08:29;;;;;;;;;;;;;;;27.75;43.70;101592.25;5144974;27;19926;-60
2023/07/09 00:10:57;;;;;;;;;;;;;;;27.73;43.95;101595.34;5140326;27;19919;-60
2023/07/09 00:13:25;;;;;;;;;;;;;;;27.70;44.00;101596.00;5138546;27;19949;-60
2023/07/09 00:15:53;;;;;;;;;;;;;;;27.69;43.70;101599.06;5136107;27;19919;-60
2023/07/09 00:18:22;;;;;;;;;;;;;;;27.68;43.83;101602.97;5145295;27;19919;-60
2023/07/09 00:20:50;;;;;;;;;;;;;;;27.66;43.99;101611.56;5136334;27;20371;-60
2023/07/09 00:23:20;;;;;;;;;;;;;;;27.63;43.87;101611.41;5144243;27;19941;-60
2023/07/09 00:25:48;;;;;;;;;;;;;;;27.63;43.97;101608.63;5137421;27;19920;-59
2023/07/09 00:28:16;;;;;;;;;;;;;;;27.60;44.28;101612.03;5147209;27;19919;-60
2023/07/09 00:30:44;;;;;;;;;;;;;;;27.58;43.99;101614.25;5144106;27;19920;-60
2023/07/09 00:33:14;;;;;;;;;;;;;;;27.55;44.25;101613.78;5145606;27;19919;-60
2023/07/09 00:35:46;;;;;;;;;;;;;;;27.54;44.05;101614.09;5139071;27;19920;-60
2023/07/09 00:38:15;;;;;;;;;;;;;;;27.51;44.21;101618.31;5137002;27;19927;-59
2023/07/09 00:40:47;;;;;;;;;;;;;;;27.48;44.31;101613.41;5139556;27;19980;-60
2023/07/09 00:43:16;;;;;;;;;;;;;;;27.47;44.35;101625.59;5137734;27;19921;-60
2023/07/09 00:45:45;;;;;;;;;;;;;;;27.44;44.35;101628.97;5140174;27;19923;-60
2023/07/09 00:48:15;;;;;;;;;;;;;;;27.42;44.29;101622.97;5138895;27;19919;-61
2023/07/09 00:50:47;;;;;;;;;;;;;;;27.40;44.46;101627.97;5141443;27;19999;-60
2023/07/09 00:53:18;;;;;;;;;;;;;;;27.40;44.46;101624.41;5145116;27;19923;-60
2023/07/09 00:55:50;;;;;;;;;;;;;;;27.37;44.54;101623.09;5140697;27;20038;-60
2023/07/09 00:58:18;;;;;;;;;;;;;;;27.35;44.45;101621.78;5139401;27;19926;-60
2023/07/09 01:00:47;;;;;;;;;;;;;;;27.33;44.73;101621.28;5146248;27;20420;-60
2023/07/09 01:03:22;;;;;;;;;;;;;;;27.30;44.69;101622.72;5146477;27;19923;-61
2023/07/09 01:05:55;;;;;;;;;;;;;;;27.29;44.77;101625.81;5140611;27;19919;-60
2023/07/09 01:08:22;;;;;;;;;;;;;;;27.26;44.96;101615.41;5138273;27;19963;-61
2023/07/09 01:10:50;;;;;;;;;;;;;;;27.25;44.97;101619.28;5141823;27;19945;-60
2023/07/09 01:13:19;;;;;;;;;;;;;;;27.21;45.11;101622.69;5144768;27;19972;-60
2023/07/09 01:15:48;;;;;;;;;;;;;;;27.18;44.75;101617.78;5149975;27;19919;-61
2023/07/09 01:18:15;;;;;;;;;;;;;;;27.17;45.04;101609.81;5143551;27;19959;-61
2023/07/09 01:20:43;;;;;;;;;;;;;;;27.15;45.16;101621.19;5137565;27;19923;-60
2023/07/09 01:23:12;;;;;;;;;;;;;;;27.13;45.21;101617.91;5137988;27;19923;-60
2023/07/09 01:25:43;;;;;;;;;;;;;;;27.11;45.15;101617.41;5129646;27;19927;-60
2023/07/09 01:28:11;;;;;;;;;;;;;;;27.11;45.02;101613.84;5131839;27;19972;-61
2023/07/09 01:30:40;;;;;;;;;;;;;;;27.07;44.99;101619.16;5141684;27;19953;-60
2023/07/09 01:33:09;;;;;;;;;;;;;;;27.07;45.28;101623.88;5125883;28;19924;-60
2023/07/09 01:35:40;;;;;;;;;;;;;;;27.04;45.39;101624.50;5136703;27;19919;-60
2023/07/09 01:38:08;;;;;;;;;;;;;;;27.03;45.39;101620.13;5136558;27;19972;-60
2023/07/09 01:40:38;;;;;;;;;;;;;;;27.01;45.25;101619.63;5136411;27;19987;-59
2023/07/09 01:43:07;;;;;;;;;;;;;;;27.00;45.46;101620.75;5133358;27;19926;-60
2023/07/09 01:45:35;;;;;;;;;;;;;;;26.97;45.20;101621.38;5133254;27;19920;-60
2023/07/09 01:48:03;;;;;;;;;;;;;;;26.95;45.56;101621.66;5135840;27;19995;-60
2023/07/09 01:50:31;;;;;;;;;;;;;;;26.92;45.59;101617.56;5144338;27;20062;-60
2023/07/09 01:52:59;;;;;;;;;;;;;;;26.91;45.79;101626.97;5134773;27;19927;-61
2023/07/09 01:55:29;;;;;;;;;;;;;;;26.90;45.67;101624.53;5143131;27;20060;-61
2023/07/09 01:57:57;;;;;;;;;;;;;;;26.87;45.83;101625.16;5139642;27;19919;-60
2023/07/09 02:00:25;;;;;;;;;;;;;;;26.85;45.74;101631.00;5138221;27;20304;-60
2023/07/09 02:02:54;;;;;;;;;;;;;;;26.82;46.13;101626.09;5133911;27;19920;-60
2023/07/09 02:05:22;;;;;;;;;;;;;;;26.80;45.99;101631.09;5129978;27;19947;-60
2023/07/09 02:07:50;;;;;;;;;;;;;;;26.77;46.11;101633.69;5132436;27;19919;-60
2023/07/09 02:10:18;;;;;;;;;;;;;;;26.75;45.99;101638.69;5136362;27;19929;-61
2023/07/09 02:12:46;;;;;;;;;;;;;;;26.72;45.91;101642.06;5140964;27;19965;-60
2023/07/09 02:15:16;;;;;;;;;;;;;;;26.71;46.08;101640.44;5129150;27;19940;-60
2023/07/09 02:17:43;;;;;;;;;;;;;;;26.67;45.99;101640.25;5145366;27;19924;-60
2023/07/09 02:20:12;;;;;;;;;;;;;;;26.66;46.14;101640.56;5142583;27;19927;-59
2023/07/09 02:22:40;;;;;;;;;;;;;;;26.64;46.21;101638.09;5140011;27;20256;-60
2023/07/09 02:25:09;;;;;;;;;;;;;;;26.63;46.22;101641.19;5144072;27;19940;-60
2023/07/09 02:27:37;;;;;;;;;;;;;;;26.60;46.30;101637.09;5145549;27;19919;-61
2023/07/09 02:30:05;;;;;;;;;;;;;;;26.57;46.48;101643.25;5146376;27;19920;-60
2023/07/09 02:32:34;;;;;;;;;;;;;;;26.56;46.54;101639.66;5127834;27;19927;-60
2023/07/09 02:35:02;;;;;;;;;;;;;;;26.54;46.53;101647.44;5145088;27;19919;-60
2023/07/09 02:37:29;;;;;;;;;;;;;;;26.52;46.31;101643.34;5143048;27;19920;-60
2023/07/09 02:39:57;;;;;;;;;;;;;;;26.50;46.63;101640.91;5144754;27;19965;-60
2023/07/09 02:42:24;;;;;;;;;;;;;;;26.49;46.58;101641.22;5140976;27;19930;-60
2023/07/09 02:44:52;;;;;;;;;;;;;;;26.47;46.68;101633.25;5140303;27;19919;-59
2023/07/09 02:47:20;;;;;;;;;;;;;;;26.45;46.54;101635.50;5134422;27;19923;-60
2023/07/09 02:49:49;;;;;;;;;;;;;;;26.44;46.73;101636.63;5144750;27;19976;-60
2023/07/09 02:52:17;;;;;;;;;;;;;;;26.42;46.67;101640.81;5138274;27;19930;-60
2023/07/09 02:54:44;;;;;;;;;;;;;;;26.39;46.73;101639.50;5144734;27;19945;-60
2023/07/09 02:57:12;;;;;;;;;;;;;;;26.38;47.06;101640.63;5138851;27;19927;-60
2023/07/09 02:59:39;;;;;;;;;;;;;;;26.37;47.00;101639.00;5138912;27;20415;-60
2023/07/09 03:02:07;;;;;;;;;;;;;;;26.36;46.97;101639.31;5150530;27;19919;-60
2023/07/09 03:04:35;;;;;;;;;;;;;;;26.35;46.95;101634.91;5142337;27;19919;-60
2023/07/09 03:07:04;;;;;;;;;;;;;;;26.34;46.95;101634.09;5142471;27;19977;-60
2023/07/09 03:09:32;;;;;;;;;;;;;;;26.33;46.96;101637.16;5145262;27;19920;-60
2023/07/09 03:11:59;;;;;;;;;;;;;;;26.31;47.10;101633.88;5155902;27;19930;-60
2023/07/09 03:14:27;;;;;;;;;;;;;;;26.28;47.04;101632.53;5142997;27;19934;-60
2023/07/09 03:16:55;;;;;;;;;;;;;;;26.27;47.21;101634.47;5145262;27;19928;-60
2023/07/09 03:19:23;;;;;;;;;;;;;;;26.26;47.24;101632.03;5134085;27;19923;-60
2023/07/09 03:21:51;;;;;;;;;;;;;;;26.23;47.07;101627.13;5146816;27;19919;-60
2023/07/09 03:24:20;;;;;;;;;;;;;;;26.23;47.35;101635.41;5146808;27;19919;-61
2023/07/09 03:26:48;;;;;;;;;;;;;;;26.22;47.35;101631.03;5144671;27;19980;-60
2023/07/09 03:29:15;;;;;;;;;;;;;;;26.20;47.32;101630.50;5145636;27;19923;-60
2023/07/09 03:31:43;;;;;;;;;;;;;;;26.17;47.39;101629.19;5151751;27;19919;-60
2023/07/09 03:34:11;;;;;;;;;;;;;;;26.15;47.56;101634.19;5146830;27;19919;-60
2023/07/09 03:36:39;;;;;;;;;;;;;;;26.14;47.41;101623.47;5146459;27;19920;-60
2023/07/09 03:39:06;;;;;;;;;;;;;;;26.14;47.52;101635.31;5148992;27;19923;-61
2023/07/09 03:41:35;;;;;;;;;;;;;;;26.12;47.45;101632.03;5151065;27;19919;-59
2023/07/09 03:44:03;;;;;;;;;;;;;;;26.10;47.25;101636.22;5137658;27;19925;-59
2023/07/09 03:46:31;;;;;;;;;;;;;;;26.09;47.47;101631.84;5144788;27;19976;-59
2023/07/09 03:48:59;;;;;;;;;;;;;;;26.07;47.55;101636.84;5135353;27;19923;-60
2023/07/09 03:51:27;;;;;;;;;;;;;;;26.05;47.54;101634.41;5147403;27;20085;-60
2023/07/09 03:53:55;;;;;;;;;;;;;;;26.04;47.53;101641.03;5142956;27;19920;-60
2023/07/09 03:56:23;;;;;;;;;;;;;;;26.01;47.47;101638.88;5149232;27;20038;-60
2023/07/09 03:58:52;;;;;;;;;;;;;;;26.00;47.70;101630.97;5148365;27;19933;-59
2023/07/09 04:01:20;;;;;;;;;;;;;;;26.00;47.52;101639.22;5150272;27;20403;-60
2023/07/09 04:03:48;;;;;;;;;;;;;;;25.99;47.75;101634.84;5142516;27;19919;-61
2023/07/09 04:06:15;;;;;;;;;;;;;;;25.96;47.70;101639.03;5143459;27;19919;-60
2023/07/09 04:08:43;;;;;;;;;;;;;;;25.93;47.81;101634.94;5146820;27;19926;-60
2023/07/09 04:11:10;;;;;;;;;;;;;;;25.92;47.76;101629.75;5153271;27;20006;-60
2023/07/09 04:13:38;;;;;;;;;;;;;;;25.90;47.89;101631.97;5150924;27;19919;-60
2023/07/09 04:16:07;;;;;;;;;;;;;;;25.89;47.99;101633.91;5141929;27;19926;-60
2023/07/09 04:18:36;;;;;;;;;;;;;;;25.88;47.89;101635.03;5139857;27;20691;-60
2023/07/09 04:21:04;;;;;;;;;;;;;;;25.86;47.91;101637.28;5136810;27;20003;-62
2023/07/09 04:23:31;;;;;;;;;;;;;;;25.85;47.96;101641.16;5143998;27;19972;-61
2023/07/09 04:26:02;;;;;;;;;;;;;;;25.84;48.03;101639.53;5143378;27;19972;-62
2023/07/09 04:28:31;;;;;;;;;;;;;;;25.82;47.79;101643.72;5139300;27;19919;-64
2023/07/09 04:30:59;;;;;;;;;;;;;;;25.81;47.68;101634.63;5135162;27;19919;-60
2023/07/09 04:33:28;;;;;;;;;;;;;;;25.80;48.10;101645.94;5143852;27;19984;-60
2023/07/09 04:35:56;;;;;;;;;;;;;;;25.79;47.97;101638.81;5140053;27;19968;-60
2023/07/09 04:38:24;;;;;;;;;;;;;;;25.77;48.14;101632.78;5140427;27;19919;-60
2023/07/09 04:40:51;;;;;;;;;;;;;;;25.76;47.87;101637.47;5145702;27;19993;-60
2023/07/09 04:43:19;;;;;;;;;;;;;;;25.75;47.98;101635.84;5145811;27;19941;-60
2023/07/09 04:45:46;;;;;;;;;;;;;;;25.74;48.13;101639.72;5143119;27;20040;-62
2023/07/09 04:48:14;;;;;;;;;;;;;;;25.73;48.13;101634.53;5140721;27;19927;-60
2023/07/09 04:50:43;;;;;;;;;;;;;;;25.71;47.94;101642.28;4785193;27;10000473;-60
2023/07/09 04:53:11;;;;;;;;;;;;;;;25.70;47.99;101630.44;5140367;27;19919;-60
2023/07/09 04:55:39;;;;;;;;;;;;;;;25.69;48.17;101634.31;5142615;27;19962;-60
2023/07/09 04:58:07;;;;;;;;;;;;;;;25.70;47.76;101635.94;5135013;27;20048;-60
2023/07/09 05:00:34;;;;;;;;;;;;;;;25.69;48.02;101641.75;5130062;27;19973;-60
2023/07/09 05:03:02;;;;;;;;;;;;;;;25.68;47.94;101631.88;5134896;27;19920;-62
2023/07/09 05:05:29;;;;;;;;;;;;;;;25.68;47.99;101631.88;5139735;27;19945;-62
2023/07/09 05:07:58;;;;;;;;;;;;;;;25.66;48.14;101632.16;5135857;27;19927;-62
2023/07/09 05:10:26;;;;;;;;;;;;;;;25.66;48.07;101632.16;4773539;27;9999649;-62
2023/07/09 05:12:54;;;;;;;;;;;;;;;25.66;47.83;101631.34;5136376;27;19963;-60
2023/07/09 05:15:23;;;;;;;;;;;;;;;25.65;48.31;101630.53;5132619;27;20290;-59
2023/07/09 05:17:51;;;;;;;;;;;;;;;25.62;48.43;101631.94;5140345;27;19927;-62
2023/07/09 05:20:19;;;;;;;;;;;;;;;25.61;48.59;101622.03;5135402;27;20411;-61
2023/07/09 05:22:46;;;;;;;;;;;;;;;25.61;48.78;101626.72;5134641;27;19927;-60
2023/07/09 05:25:15;;;;;;;;;;;;;;;25.62;48.65;101640.19;5132411;27;19923;-59
2023/07/09 05:27:43;;;;;;;;;;;;;;;25.62;48.70;101636.63;5135851;27;19923;-60
2023/07/09 05:30:11;;;;;;;;;;;;;;;25.62;48.76;101634.69;5140674;27;19919;-60
2023/07/09 05:32:38;;;;;;;;;;;;;;;25.63;48.70;101635.50;5133711;27;19935;-59
2023/07/09 05:35:07;;;;;;;;;;;;;;;25.63;48.75;101630.00;5135307;27;19975;-60
2023/07/09 05:37:34;;;;;;;;;;;;;;;25.65;48.67;101629.72;5137930;27;19923;-60
2023/07/09 05:40:02;;;;;;;;;;;;;;;25.66;48.81;101631.34;5141841;27;19930;-60
2023/07/09 05:42:31;;;;;;;;;;;;;;;25.68;48.74;101631.88;5136495;27;19931;-60
2023/07/09 05:44:59;;;;;;;;;;;;;;;25.70;48.76;101632.38;5146009;27;19919;-59
2023/07/09 05:47:27;;;;;;;;;;;;;;;25.70;48.74;101633.19;5140592;27;19965;-60
2023/07/09 05:49:55;;;;;;;;;;;;;;;25.73;48.87;101635.34;5140744;27;19927;-61
2023/07/09 05:52:23;;;;;;;;;;;;;;;25.75;48.71;101635.84;5134147;27;19920;-60
2023/07/09 05:54:52;;;;;;;;;;;;;;;25.78;48.98;101632.50;5135871;27;19955;-59
2023/07/09 05:57:20;;;;;;;;;;;;;;;25.79;48.78;101625.03;5141486;27;19927;-59
2023/07/09 05:59:49;;;;;;;;;;;;;;;25.80;48.69;101635.75;5142534;27;19923;-59
2023/07/09 06:02:17;;;;;;;;;;;;;;;25.81;48.79;101642.91;5130467;27;19923;-60
2023/07/09 06:04:46;;;;;;;;;;;;;;;25.82;48.79;101639.03;5137754;27;19962;-60
2023/07/09 06:07:13;;;;;;;;;;;;;;;25.84;48.92;101633.22;5137011;27;20019;-61
2023/07/09 06:09:41;;;;;;;;;;;;;;;25.86;48.86;101642.78;5134572;27;19944;-63
2023/07/09 06:12:09;;;;;;;;;;;;;;;25.87;48.86;101644.44;5142208;27;19948;-61
2023/07/09 06:14:37;;;;;;;;;;;;;;;25.90;49.22;101643.81;5137323;27;19926;-61
2023/07/09 06:17:06;;;;;;;;;;;;;;;25.91;49.58;101644.63;5134951;27;20051;-62
2023/07/09 06:19:33;;;;;;;;;;;;;;;25.92;49.56;101638.81;5128059;27;19995;-62
2023/07/09 06:22:01;;;;;;;;;;;;;;;25.94;49.46;101641.28;5129657;27;19928;-62
2023/07/09 06:24:29;;;;;;;;;;;;;;;25.96;49.33;101646.47;5136163;27;19934;-63
2023/07/09 06:26:56;;;;;;;;;;;;;;;25.98;49.48;101641.47;5139323;27;19923;-62
2023/07/09 06:29:24;;;;;;;;;;;;;;;25.98;49.26;101636.78;5139131;28;20060;-62
2023/07/09 06:31:52;;;;;;;;;;;;;;;26.00;49.19;101640.03;5133755;28;20253;-62
2023/07/09 06:34:21;;;;;;;;;;;;;;;26.01;49.08;101641.66;5139006;27;20243;-61
2023/07/09 06:36:48;;;;;;;;;;;;;;;26.03;49.07;101633.88;5132921;27;19920;-61
2023/07/09 06:39:16;;;;;;;;;;;;;;;26.04;49.22;101638.28;5145006;27;19958;-62
2023/07/09 06:41:43;;;;;;;;;;;;;;;26.06;48.95;101635.22;5139707;27;20004;-61
2023/07/09 06:44:11;;;;;;;;;;;;;;;26.07;48.99;101639.59;5136555;27;19977;-62
2023/07/09 06:46:39;;;;;;;;;;;;;;;26.08;49.09;101639.28;5140820;27;19927;-61
2023/07/09 06:49:06;;;;;;;;;;;;;;;26.10;48.96;101647.25;5148433;27;20015;-61
2023/07/09 06:51:35;;;;;;;;;;;;;;;26.11;48.95;101643.38;5142167;27;19928;-61
2023/07/09 06:54:04;;;;;;;;;;;;;;;26.12;48.79;101643.06;5142046;27;19926;-61
2023/07/09 06:56:32;;;;;;;;;;;;;;;26.15;48.88;101652.66;5140033;27;19923;-62
2023/07/09 06:58:59;;;;;;;;;;;;;;;26.16;48.95;101657.88;5139716;27;19923;-63
2023/07/09 07:01:27;;;;;;;;;;;;;;;26.16;48.96;101655.09;5137527;27;20045;-63
2023/07/09 07:03:55;;;;;;;;;;;;;;;26.19;48.87;101653.69;5138852;27;19926;-62
2023/07/09 07:06:22;;;;;;;;;;;;;;;26.19;48.90;101646.22;5138001;27;19976;-62
2023/07/09 07:08:52;;;;;;;;;;;;;;;26.21;49.06;101655.00;5149107;27;19931;-61
2023/07/09 07:11:19;;;;;;;;;;;;;;;26.22;48.71;101650.31;5142418;27;20250;-62
2023/07/09 07:13:51;;;;;;;;;;;;;;;26.24;48.79;101653.56;5128781;28;19941;-61
2023/07/09 07:16:19;;;;;;;;;;;;;;;26.26;48.88;101651.31;5137979;27;20382;-62
2023/07/09 07:18:46;;;;;;;;;;;;;;;26.27;48.99;101653.78;5149048;27;19919;-63
2023/07/09 07:21:14;;;;;;;;;;;;;;;26.29;48.99;101664.50;5144204;27;20294;-62
2023/07/09 07:23:41;;;;;;;;;;;;;;;26.32;48.93;101654.81;5134937;27;19923;-62
2023/07/09 07:26:10;;;;;;;;;;;;;;;26.34;48.97;101655.31;5144879;27;19976;-62
2023/07/09 07:28:38;;;;;;;;;;;;;;;26.35;48.95;101663.28;5135783;27;19968;-62
2023/07/09 07:31:07;;;;;;;;;;;;;;;26.38;48.98;101659.09;5140464;27;19927;-62
2023/07/09 07:33:35;;;;;;;;;;;;;;;26.40;48.98;101662.38;5142515;27;19920;-61
2023/07/09 07:36:04;;;;;;;;;;;;;;;26.41;48.75;101662.06;5142063;27;19946;-62
2023/07/09 07:38:52;;;;;;;;;;;;;;;26.45;48.72;101665.00;5140094;27;19990;-61
2023/07/09 07:41:21;;;;;;;;;;;;;;;26.46;48.69;101656.44;5144528;27;19923;-63
2023/07/09 07:43:48;;;;;;;;;;;;;;;26.49;48.75;101655.81;5142433;27;19920;-62
2023/07/09 07:46:16;;;;;;;;;;;;;;;26.51;48.61;101661.84;5137240;27;19926;-62
2023/07/09 07:48:44;;;;;;;;;;;;;;;26.55;49.06;101651.00;5131878;27;19945;-63
2023/07/09 07:51:11;;;;;;;;;;;;;;;26.55;49.23;101654.56;5138239;27;19923;-63
2023/07/09 07:53:39;;;;;;;;;;;;;;;26.56;49.38;101658.97;5139939;27;19941;-63
2023/07/09 07:56:07;;;;;;;;;;;;;;;26.58;48.99;101656.72;5144145;27;20037;-63
2023/07/09 07:58:36;;;;;;;;;;;;;;;26.59;48.17;101663.03;5154528;27;19919;-62
2023/07/09 08:01:03;;;;;;;;;;;;;;;26.59;48.56;101661.09;5144349;27;19934;-62
2023/07/09 08:03:31;;;;;;;;;;;;;;;26.61;49.63;101659.97;5138799;27;19930;-62
2023/07/09 08:05:59;;;;;;;;;;;;;;;26.61;49.54;101649.75;5148290;27;19941;-62
2023/07/09 08:08:29;;;;;;;;;;;;;;;26.62;49.03;101643.13;5142244;27;20356;-62
2023/07/09 08:11:01;;;;;;;;;;;;;;;26.63;49.10;101655.78;5145629;27;19920;-62
2023/07/09 08:13:28;;;;;;;;;;;;;;;26.63;49.61;101650.28;5139468;27;19949;-62
2023/07/09 08:15:57;;;;;;;;;;;;;;;26.62;49.20;101643.13;5146566;27;19927;-62
2023/07/09 08:18:25;;;;;;;;;;;;;;;26.63;48.98;101642.00;5134963;27;19920;-62
2023/07/09 08:20:53;;;;;;;;;;;;;;;26.64;48.60;101643.63;5144950;27;19923;-63
2023/07/09 08:23:20;;;;;;;;;;;;;;;26.66;48.73;101646.06;5147110;27;20031;-62
2023/07/09 08:25:53;;;;;;;;;;;;;;;26.67;48.78;101644.94;5144303;27;19919;-61
2023/07/09 08:28:20;;;;;;;;;;;;;;;26.67;49.02;101640.25;5146612;27;19935;-61
2023/07/09 08:30:48;;;;;;;;;;;;;;;26.68;49.12;101639.13;5148358;27;19919;-61
2023/07/09 08:33:17;;;;;;;;;;;;;;;26.69;49.77;101637.19;5140595;27;19945;-63
2023/07/09 08:35:44;;;;;;;;;;;;;;;26.70;49.89;101636.06;5141122;27;19952;-61
2023/07/09 08:38:12;;;;;;;;;;;;;;;26.70;50.06;101636.06;5156496;27;19923;-61
2023/07/09 08:40:41;;;;;;;;;;;;;;;26.71;50.16;101634.94;5145875;27;20356;-61
2023/07/09 08:43:17;;;;;;;;;;;;;;;26.72;49.76;101640.13;5147800;27;19930;-61
2023/07/09 08:45:50;;;;;;;;;;;;;;;26.74;49.76;101642.56;5146988;27;19926;-61
2023/07/09 08:48:24;;;;;;;;;;;;;;;26.75;49.70;101635.94;5144695;27;19919;-61
2023/07/09 08:50:55;;;;;;;;;;;;;;;26.76;49.87;101646.66;5144621;27;19935;-62
2023/07/09 08:53:27;;;;;;;;;;;;;;;26.77;50.06;101640.00;5144755;27;19930;-62
2023/07/09 08:55:55;;;;;;;;;;;;;;;26.79;50.12;101639.69;5141636;27;19942;-62
2023/07/09 08:58:25;;;;;;;;;;;;;;;26.81;49.83;101643.78;5144489;27;19920;-62
2023/07/09 09:00:55;;;;;;;;;;;;;;;26.82;50.00;101645.41;5147450;27;19923;-61
2023/07/09 09:03:29;;;;;;;;;;;;;;;26.86;49.94;101643.66;5143450;27;19923;-61
2023/07/09 09:05:57;;;;;;;;;;;;;;;26.89;49.69;101629.25;5138696;27;19927;-61
2023/07/09 09:08:33;;;;;;;;;;;;;;;26.93;49.94;101632.19;5146964;27;19927;-62
2023/07/09 09:11:06;;;;;;;;;;;;;;;26.95;49.98;101629.94;5139371;27;20384;-62
2023/07/09 09:13:34;;;;;;;;;;;;;;;26.99;49.83;101624.63;5144442;27;19920;-61
2023/07/09 09:16:05;;;;;;;;;;;;;;;27.01;49.94;101625.13;5147550;27;19927;-62
2023/07/09 09:18:37;;;;;;;;;;;;;;;27.04;49.96;101619.00;5134767;27;19927;-63
2023/07/09 09:21:10;;;;;;;;;;;;;;;27.08;49.99;101626.31;5136091;27;20269;-62
2023/07/09 09:23:39;;;;;;;;;;;;;;;27.11;49.80;101625.69;5145097;27;19919;-62
2023/07/09 09:26:12;;;;;;;;;;;;;;;27.14;49.95;101627.81;5140958;27;20372;-63
2023/07/09 09:28:40;;;;;;;;;;;;;;;27.17;49.86;101618.91;5144028;27;20346;-61
2023/07/09 09:31:09;;;;;;;;;;;;;;;27.20;49.55;101614.72;5135436;27;19941;-62
2023/07/09 09:33:42;;;;;;;;;;;;;;;27.23;49.95;101609.38;5137745;27;19919;-62
2023/07/09 09:36:15;;;;;;;;;;;;;;;27.27;49.89;101605.97;5148813;27;19923;-65
2023/07/09 09:38:43;;;;;;;;;;;;;;;27.29;50.03;101603.72;5143231;27;19935;-62
2023/07/09 09:41:13;;;;;;;;;;;;;;;27.32;49.97;101589.28;5137783;27;19927;-61
2023/07/09 09:43:42;;;;;;;;;;;;;;;27.34;50.01;101595.31;5141387;27;19941;-61
2023/07/09 09:46:17;;;;;;;;;;;;;;;27.37;49.84;101589.16;5137187;27;19919;-62
2023/07/09 09:48:47;;;;;;;;;;;;;;;27.40;49.81;101588.53;5139290;27;19943;-61
2023/07/09 09:51:16;;;;;;;;;;;;;;;27.42;49.90;101583.50;5142894;27;19919;-62
2023/07/09 09:53:48;;;;;;;;;;;;;;;27.42;49.83;101578.78;5144889;27;19927;-62
2023/07/09 09:56:18;;;;;;;;;;;;;;;27.44;50.09;101575.72;5143199;27;19919;-62
2023/07/09 09:58:45;;;;;;;;;;;;;;;27.46;49.91;101570.69;5129130;27;19934;-62
2023/07/09 10:01:15;;;;;;;;;;;;;;;27.50;50.09;101578.00;5134075;27;19984;-62
2023/07/09 10:03:44;;;;;;;;;;;;;;;27.55;49.75;101577.88;5139962;27;19984;-62
2023/07/09 10:06:17;;;;;;;;;;;;;;;27.61;49.71;101589.63;5135769;27;19926;-63
2023/07/09 10:08:51;;;;;;;;;;;;;;;27.66;49.75;101585.91;5136780;27;19923;-66
2023/07/09 10:11:22;;;;;;;;;;;;;;;27.79;48.81;101590.47;5133589;27;19919;-62
2023/07/09 10:13:51;;;;;;;;;;;;;;;27.85;49.11;101583.66;5133020;27;19919;-65
2023/07/09 10:16:23;;;;;;;;;;;;;;;27.88;49.65;101583.03;5138435;27;19926;-61
2023/07/09 10:18:54;;;;;;;;;;;;;;;27.92;49.62;101589.53;5141867;27;19926;-60
2023/07/09 10:21:31;;;;;;;;;;;;;;;28.00;49.16;101585.97;5140711;27;19920;-60
2023/07/09 10:24:08;;;;;;;;;;;;;;;28.05;49.42;101596.88;5135988;27;19944;-61
2023/07/09 10:26:41;;;;;;;;;;;;;;;28.09;49.79;101594.28;5135177;27;19941;-62
2023/07/09 10:29:21;;;;;;;;;;;;;;;28.11;49.83;101603.06;5137731;27;19919;-60
2023/07/09 10:31:51;;;;;;;;;;;;;;;28.13;49.75;101607.16;4777184;27;9999888;-60
2023/07/09 10:34:26;;;;;;;;;;;;;;;28.14;49.68;101605.19;5142218;27;19920;-60
2023/07/09 10:37:04;;;;;;;;;;;;;;;28.15;49.66;101610.41;5141683;27;19941;-60
2023/07/09 10:39:34;;;;;;;;;;;;;;;28.17;49.34;101613.66;5142757;27;19919;-58
2023/07/09 10:42:02;;;;;;;;;;;;;;;28.21;49.48;101619.34;5133864;27;19919;-59
2023/07/09 10:44:32;;;;;;;;;;;;;;;28.27;49.40;101606.22;5134891;28;19920;-60
2023/07/09 10:47:02;;;;;;;;;;;;;;;28.31;48.93;101601.69;5140518;28;19926;-60
2023/07/09 10:49:36;;;;;;;;;;;;;;;28.34;49.13;101596.31;5126964;27;20018;-59
2023/07/09 10:52:07;;;;;;;;;;;;;;;28.37;48.83;101584.59;5129981;27;19999;-60
2023/07/09 10:54:36;;;;;;;;;;;;;;;28.42;48.77;101586.41;5138965;28;19924;-60
2023/07/09 10:57:09;;;;;;;;;;;;;;;28.47;49.08;101578.75;5133412;28;19932;-59
2023/07/09 10:59:40;;;;;;;;;;;;;;;28.54;48.40;101583.81;5134269;28;19923;-59
2023/07/09 11:02:18;;;;;;;;;;;;;;;28.59;48.27;101583.63;5132045;27;19968;-59
2023/07/09 11:04:48;;;;;;;;;;;;;;;28.65;48.67;101585.09;5132855;27;19987;-59
2023/07/09 11:07:21;;;;;;;;;;;;;;;28.73;48.26;101575.16;5131379;27;19923;-60
2023/07/09 11:09:52;;;;;;;;;;;;;;;28.82;48.19;101579.59;5139709;27;19965;-60
2023/07/09 11:12:28;;;;;;;;;;;;;;;28.88;48.77;101579.41;5127831;28;19923;-61
2023/07/09 11:14:58;;;;;;;;;;;;;;;28.89;48.39;101589.34;5129783;28;19920;-60
2023/07/09 11:17:27;;;;;;;;;;;;;;;28.91;48.13;101593.41;5131142;27;19991;-61
2023/07/09 11:19:56;;;;;;;;;;;;;;;28.94;48.04;101605.78;5134258;27;19935;-60
2023/07/09 11:22:27;;;;;;;;;;;;;;;29.01;47.90;101611.63;5137847;27;19980;-60
2023/07/09 11:25:06;;;;;;;;;;;;;;;29.06;47.25;101609.50;5144676;27;19931;-60
2023/07/09 11:27:34;;;;;;;;;;;;;;;29.13;47.03;101604.28;5139313;27;19919;-60
2023/07/09 11:30:05;;;;;;;;;;;;;;;29.21;47.22;101607.38;5146256;27;19995;-60
2023/07/09 11:32:32;;;;;;;;;;;;;;;29.25;46.93;101600.03;5140319;27;20051;-60
2023/07/09 11:35:10;;;;;;;;;;;;;;;29.32;46.56;101594.78;5146630;27;19927;-60
2023/07/09 11:37:46;;;;;;;;;;;;;;;29.38;46.28;101597.06;5140907;27;19968;-60
2023/07/09 11:40:15;;;;;;;;;;;;;;;29.43;46.18;101602.44;5137988;27;19980;-60
2023/07/09 11:42:53;;;;;;;;;;;;;;;29.50;46.19;101612.16;5146906;27;19919;-60
2023/07/09 11:45:25;;;;;;;;;;;;;;;29.54;46.35;101605.63;5146278;27;19920;-61
2023/07/09 11:47:55;;;;;;;;;;;;;;;29.57;46.13;101609.69;5143565;27;19989;-60
2023/07/09 11:50:25;;;;;;;;;;;;;;;29.60;45.75;101615.38;5137681;27;19920;-60
2023/07/09 11:52:56;;;;;;;;;;;;;;;29.66;46.09;101611.28;5138031;27;19920;-60
2023/07/09 11:55:27;;;;;;;;;;;;;;;29.68;46.61;101625.63;5137984;27;19920;-60
2023/07/09 11:57:55;;;;;;;;;;;;;;;29.65;47.11;101634.59;5148854;27;19945;-60
2023/07/09 12:00:22;;;;;;;;;;;;;;;29.62;46.51;101640.78;5142451;27;19930;-59
2023/07/09 12:02:51;;;;;;;;;;;;;;;29.58;46.88;101630.72;5142109;27;19947;-60
2023/07/09 12:05:21;;;;;;;;;;;;;;;29.56;46.37;101633.81;5135349;27;19919;-61
2023/07/09 12:07:49;;;;;;;;;;;;;;;29.51;47.09;101636.75;5140212;27;19949;-60
2023/07/09 12:10:20;;;;;;;;;;;;;;;29.47;46.84;101625.53;5148245;27;20002;-61
2023/07/09 12:12:48;;;;;;;;;;;;;;;29.43;46.83;101627.38;5136124;27;19919;-62
2023/07/09 12:15:20;;;;;;;;;;;;;;;29.45;47.19;101632.56;5127202;28;20219;-61
2023/07/09 12:17:55;;;;;;;;;;;;;;;29.46;48.00;101637.78;5125193;27;20253;-60
2023/07/09 12:20:23;;;;;;;;;;;;;;;29.46;47.65;101634.19;5137805;27;19931;-60
2023/07/09 12:22:50;;;;;;;;;;;;;;;29.45;47.54;101627.03;5136893;27;20000;-61
2023/07/09 12:25:24;;;;;;;;;;;;;;;29.46;47.97;101628.66;5138308;27;20240;-60
2023/07/09 12:27:52;;;;;;;;;;;;;;;29.46;47.63;101623.13;5137921;27;19992;-61
2023/07/09 12:30:20;;;;;;;;;;;;;;;29.45;47.62;101615.97;4779792;27;10001762;-60
2023/07/09 12:32:52;;;;;;;;;;;;;;;29.45;47.50;101602.09;5133802;27;19919;-60
2023/07/09 12:35:20;;;;;;;;;;;;;;;29.43;47.63;101604.41;5139742;27;20396;-60
2023/07/09 12:37:49;;;;;;;;;;;;;;;29.41;47.68;101601.13;5129871;27;19977;-60
2023/07/09 12:40:19;;;;;;;;;;;;;;;29.41;47.67;101612.19;5141029;27;19920;-60
2023/07/09 12:42:49;;;;;;;;;;;;;;;29.40;48.15;101611.38;5140823;27;19976;-61
2023/07/09 12:45:18;;;;;;;;;;;;;;;29.41;48.00;101612.19;5134778;27;20038;-62